Terminal Aerodrome Forecast
Issued by NWS Jackson, MS

Home | Current Version | Previous Version | Text Only | Print | Product List | Glossary On
Versions: 1 2 3 4 5 6 7 8 9 10 11 12 13
000
FTUS44 KJAN 042339
TAFMEI
TAF
KMEI 042339Z 0500/0524 00000KT 2SM -RA BR OVC004
     FM050400 01005KT P6SM SCT007 OVC015
     FM050900 03006KT 4SM -RA BR OVC004
     FM051600 04004KT 1 1/2SM -RA BR OVC001
     FM052000 07004KT 2SM -RA BR OVC003=

USA.gov is the U.S. government's official web portal to all federal, state and local government web resources and services.